Time;durP1;ratioP1;P1;durP2;ratioP2;P2;SDS_P1;SDS_P2;PMS_P1;PMS_P2;Temp;Humidity;BMP_temperature;BMP_pressure;BME280_temperature;BME280_humidity;BME280_pressure;Samples;Min_cycle;Max_cycle;Signal;HPM_P1;HPM_P2
2022/03/19 00:02:51;;;;;;;;;;;;;;;2.60;100.00;100879.28;10344614;28;20012;-82
2022/03/19 00:07:52;;;;;;;;;;;;;;;2.44;100.00;100877.06;10350350;28;20012;-78
2022/03/19 00:12:53;;;;;;;;;;;;;;;2.24;100.00;100880.53;10323988;28;19930;-78
2022/03/19 00:17:54;;;;;;;;;;;;;;;2.07;100.00;100875.84;10307436;28;19930;-79
2022/03/19 00:22:54;;;;;;;;;;;;;;;2.05;100.00;100873.41;10315097;28;19938;-79
2022/03/19 00:27:54;;;;;;;;;;;;;;;2.22;100.00;100872.00;10344160;28;19930;-81
2022/03/19 00:32:55;;;;;;;;;;;;;;;2.25;100.00;100868.09;10359032;28;19925;-78
2022/03/19 00:37:55;;;;;;;;;;;;;;;2.28;100.00;100859.75;10348985;28;19925;-77
2022/03/19 00:42:56;;;;;;;;;;;;;;;2.31;100.00;100861.19;10345791;28;20468;-83
2022/03/19 00:47:57;;;;;;;;;;;;;;;2.64;100.00;100851.34;10354608;28;19932;-78
2022/03/19 00:52:57;;;;;;;;;;;;;;;2.92;100.00;100844.94;10341032;28;19926;-77
2022/03/19 00:57:58;;;;;;;;;;;;;;;3.25;100.00;100845.63;10323066;28;19952;-80
2022/03/19 01:02:59;;;;;;;;;;;;;;;3.46;100.00;100828.56;10301104;28;19936;-80
2022/03/19 01:08:00;;;;;;;;;;;;;;;3.62;100.00;100816.63;10360384;28;19926;-78
2022/03/19 01:13:03;;;;;;;;;;;;;;;3.77;100.00;100825.09;10374499;28;19914;-80
2022/03/19 01:18:03;;;;;;;;;;;;;;;3.85;100.00;100810.75;10288141;28;19929;-77
2022/03/19 01:23:04;;;;;;;;;;;;;;;3.87;100.00;100808.69;10343101;28;19929;-80
2022/03/19 01:28:04;;;;;;;;;;;;;;;3.90;100.00;100813.56;10319865;28;19930;-79
2022/03/19 01:33:05;;;;;;;;;;;;;;;3.91;100.00;100809.88;10328265;28;20364;-81
2022/03/19 01:38:05;;;;;;;;;;;;;;;3.81;100.00;100806.88;10298699;28;20017;-78
2022/03/19 01:43:07;;;;;;;;;;;;;;;3.66;100.00;100808.03;10331179;28;19933;-78
2022/03/19 01:48:07;;;;;;;;;;;;;;;3.66;100.00;100808.03;10353796;28;19933;-76
2022/03/19 01:53:08;;;;;;;;;;;;;;;3.13;100.00;100804.88;10316577;28;19984;-77
2022/03/19 01:58:08;;;;;;;;;;;;;;;2.78;100.00;100807.88;10340550;28;19926;-78
2022/03/19 02:03:08;;;;;;;;;;;;;;;2.72;100.00;100813.19;10325485;28;19934;-79
2022/03/19 02:08:09;;;;;;;;;;;;;;;2.84;100.00;100809.69;10321741;28;20401;-78
2022/03/19 02:13:10;;;;;;;;;;;;;;;2.94;100.00;100801.28;10310575;28;20027;-78
2022/03/19 02:18:11;;;;;;;;;;;;;;;2.86;100.00;100793.56;10311007;28;20089;-78
2022/03/19 02:28:39;;;;;;;;;;;;;;;2.64;100.00;100793.00;10350052;28;19929;-77
2022/03/19 02:33:39;;;;;;;;;;;;;;;2.54;100.00;100780.19;10316409;28;19930;-77
2022/03/19 02:38:43;;;;;;;;;;;;;;;2.44;100.00;100774.50;10330835;28;19997;-76
2022/03/19 02:43:48;;;;;;;;;;;;;;;2.42;100.00;100781.06;10330029;28;20300;-79
2022/03/19 02:48:49;;;;;;;;;;;;;;;2.36;100.00;100773.91;10291189;28;20389;-79
2022/03/19 02:53:49;;;;;;;;;;;;;;;2.28;100.00;100775.75;10327909;28;20005;-79
2022/03/19 02:58:50;;;;;;;;;;;;;;;2.21;100.00;100760.94;10320549;28;19929;-78
2022/03/19 03:03:51;;;;;;;;;;;;;;;2.21;100.00;100759.09;10313643;28;20404;-80
2022/03/19 03:08:52;;;;;;;;;;;;;;;2.19;100.00;100755.00;10319922;28;19932;-79
2022/03/19 03:13:52;;;;;;;;;;;;;;;2.18;100.00;100756.03;10329510;28;19933;-80
2022/03/19 03:18:54;;;;;;;;;;;;;;;2.08;100.00;100745.03;10333265;28;19937;-79
2022/03/19 03:23:56;;;;;;;;;;;;;;;2.12;100.00;100755.03;10286417;28;19925;-83
2022/03/19 03:28:57;;;;;;;;;;;;;;;2.12;100.00;100746.28;10317869;28;20092;-80
2022/03/19 03:33:57;;;;;;;;;;;;;;;2.10;100.00;100743.81;10330925;28;20023;-79
2022/03/19 03:38:58;;;;;;;;;;;;;;;2.20;100.00;100746.88;10277051;28;20353;-78
2022/03/19 03:43:58;;;;;;;;;;;;;;;2.26;100.00;100745.22;10336240;28;19934;-78
2022/03/19 03:48:58;;;;;;;;;;;;;;;2.32;100.00;100732.97;10343928;28;19926;-79
2022/03/19 03:53:59;;;;;;;;;;;;;;;2.42;100.00;100731.50;10300323;28;19980;-77
2022/03/19 03:59:01;;;;;;;;;;;;;;;2.50;100.00;100723.34;10337926;28;19926;-78
2022/03/19 04:04:05;;;;;;;;;;;;;;;2.60;100.00;100716.75;10339639;28;19937;-79
2022/03/19 04:09:06;;;;;;;;;;;;;;;2.67;100.00;100714.91;10355580;28;19929;-80
2022/03/19 04:14:07;;;;;;;;;;;;;;;2.49;100.00;100710.28;10354018;28;19934;-78
2022/03/19 04:19:08;;;;;;;;;;;;;;;2.35;100.00;100712.16;10355995;28;19926;-85
2022/03/19 04:24:08;;;;;;;;;;;;;;;1.89;100.00;100715.72;10301825;28;19981;-79
2022/03/19 04:29:09;;;;;;;;;;;;;;;1.78;100.00;100721.66;10281364;28;20678;-78
2022/03/19 04:34:11;;;;;;;;;;;;;;;2.14;100.00;100713.25;10297726;28;19930;-80
2022/03/19 04:39:11;;;;;;;;;;;;;;;2.34;100.00;100704.41;10311978;28;20405;-78
2022/03/19 04:44:11;;;;;;;;;;;;;;;2.30;100.00;100711.19;10305622;28;20041;-78
2022/03/19 04:49:12;;;;;;;;;;;;;;;2.02;100.00;100714.09;10292698;28;19930;-79
2022/03/19 04:54:16;;;;;;;;;;;;;;;1.85;100.00;100713.72;10296093;28;19930;-81
2022/03/19 04:59:16;;;;;;;;;;;;;;;1.82;100.00;100720.22;10288161;28;19937;-79
2022/03/19 05:04:17;;;;;;;;;;;;;;;1.85;100.00;100724.31;10279241;28;19937;-76
2022/03/19 05:14:36;;;;;;;;;;;;;;;1.64;100.00;100720.03;10288940;28;19937;-78
2022/03/19 05:19:36;;;;;;;;;;;;;;;1.40;100.00;100724.91;10284553;28;20278;-79
2022/03/19 05:24:37;;;;;;;;;;;;;;;1.16;100.00;100722.84;10322959;28;20541;-79
2022/03/19 05:29:39;;;;;;;;;;;;;;;1.17;100.00;100731.59;10312651;28;20069;-79
2022/03/19 05:34:41;;;;;;;;;;;;;;;1.13;100.00;100729.34;10321345;28;20439;-78
2022/03/19 05:39:41;;;;;;;;;;;;;;;1.10;100.00;100737.69;10346617;28;20040;-79
2022/03/19 05:44:42;;;;;;;;;;;;;;;1.03;100.00;100728.94;10332656;28;20022;-78
2022/03/19 05:49:42;;;;;;;;;;;;;;;1.20;100.00;100734.66;10342072;28;19930;-77
2022/03/19 05:54:43;;;;;;;;;;;;;;;1.54;100.00;100740.78;10325442;28;19930;-77
2022/03/19 05:59:43;;;;;;;;;;;;;;;1.74;100.00;100733.69;10335847;28;19925;-79
2022/03/19 06:04:45;;;;;;;;;;;;;;;1.93;100.00;100734.69;10300496;28;19941;-81
2022/03/19 06:09:48;;;;;;;;;;;;;;;2.10;100.00;100733.22;10319730;28;20368;-81
2022/03/19 06:14:53;;;;;;;;;;;;;;;2.26;100.00;100714.22;10331656;28;19930;-79
2022/03/19 06:19:54;;;;;;;;;;;;;;;2.34;100.00;100712.38;10370111;28;19913;-80
2022/03/19 06:24:55;;;;;;;;;;;;;;;2.43;100.00;100701.34;10361343;28;19926;-81
2022/03/19 06:29:55;;;;;;;;;;;;;;;2.71;100.00;100708.16;10335527;28;19990;-76
2022/03/19 06:34:55;;;;;;;;;;;;;;;3.05;100.00;100701.63;10311759;28;19969;-79
2022/03/19 06:39:57;;;;;;;;;;;;;;;3.38;100.00;100691.63;10328157;28;19936;-82
2022/03/19 06:44:58;;;;;;;;;;;;;;;3.48;100.00;100683.16;10345963;28;19937;-77
2022/03/19 06:50:00;;;;;;;;;;;;;;;3.61;100.00;100685.69;10327953;28;19926;-78
2022/03/19 06:55:02;;;;;;;;;;;;;;;4.24;100.00;100672.19;10336248;28;20020;-77
2022/03/19 07:00:03;;;;;;;;;;;;;;;5.47;100.00;100659.38;10303856;28;20464;-79
2022/03/19 07:05:04;;;;;;;;;;;;;;;6.19;100.00;100641.28;10324666;28;19930;-79
2022/03/19 07:10:08;;;;;;;;;;;;;;;6.13;100.00;100634.25;10327503;28;19980;-78
2022/03/19 07:15:27;;;;;;;;;;;;;;;6.08;100.00;100629.63;10351948;28;20377;-79
2022/03/19 07:20:30;;;;;;;;;;;;;;;5.62;100.00;100627.78;10359963;28;19917;-78
2022/03/19 07:25:38;;;;;;;;;;;;;;;5.48;100.00;100621.06;10322788;28;20376;-80
2022/03/19 07:30:40;;;;;;;;;;;;;;;5.60;100.00;100622.69;10321237;28;20472;-78
2022/03/19 07:35:41;;;;;;;;;;;;;;;5.74;100.00;100619.78;10324190;28;19989;-80
2022/03/19 07:46:03;;;;;;;;;;;;;;;6.25;100.00;100576.34;10347119;28;19930;-79
2022/03/19 07:51:05;;;;;;;;;;;;;;;6.36;100.00;100588.84;10362817;28;20020;-78
2022/03/19 07:56:25;;;;;;;;;;;;;;;6.55;100.00;100576.91;10365058;28;19925;-81
2022/03/19 08:01:26;;;;;;;;;;;;;;;6.65;100.00;100530.09;10342542;28;19925;-80
2022/03/19 08:06:28;;;;;;;;;;;;;;;6.76;100.00;100558.56;10314821;28;20012;-79
2022/03/19 08:11:31;;;;;;;;;;;;;;;6.69;100.00;100563.28;10329238;28;19926;-79
2022/03/19 08:16:34;;;;;;;;;;;;;;;7.05;100.00;100554.81;10310797;28;20385;-79
2022/03/19 08:21:36;;;;;;;;;;;;;;;7.31;100.00;100557.84;10336170;28;19926;-81
2022/03/19 08:26:37;;;;;;;;;;;;;;;7.57;100.00;100559.81;10345537;28;19927;-78
2022/03/19 08:31:37;;;;;;;;;;;;;;;7.28;100.00;100556.47;10323356;28;20333;-75
2022/03/19 08:36:39;;;;;;;;;;;;;;;7.09;100.00;100549.78;10316085;28;19925;-75
2022/03/19 08:41:40;;;;;;;;;;;;;;;7.25;100.00;100530.25;10346978;28;19953;-76
2022/03/19 08:46:40;;;;;;;;;;;;;;;7.25;100.00;100524.13;10338775;28;20000;-75
2022/03/19 08:51:41;;;;;;;;;;;;;;;7.32;100.00;100530.09;10324735;28;19936;-76
2022/03/19 08:56:42;;;;;;;;;;;;;;;7.53;100.00;100515.94;10324701;28;19930;-73
2022/03/19 09:01:43;;;;;;;;;;;;;;;7.77;100.00;100511.16;10309591;28;19934;-72
2022/03/19 09:06:44;;;;;;;;;;;;;;;7.99;100.00;100509.28;10308102;28;20419;-75
2022/03/19 09:11:45;;;;;;;;;;;;;;;7.88;100.00;100498.72;10331713;28;19996;-77
2022/03/19 09:16:47;;;;;;;;;;;;;;;8.07;100.00;100502.69;10337458;28;19952;-78
2022/03/19 09:21:47;;;;;;;;;;;;;;;8.42;100.00;100499.59;10331554;28;19937;-77
2022/03/19 09:26:53;;;;;;;;;;;;;;;8.49;95.37;100496.69;10284139;28;19914;-82
2022/03/19 09:31:54;;;;;;;;;;;;;;;8.55;96.32;100490.31;10297101;28;19910;-81
2022/03/19 09:36:58;;;;;;;;;;;;;;;8.07;92.94;100473.25;10290671;28;19973;-81
2022/03/19 09:42:00;;;;;;;;;;;;;;;7.62;89.78;100476.25;10262537;28;19961;-81
2022/03/19 09:47:03;;;;;;;;;;;;;;;7.91;95.11;100458.13;10283777;28;19930;-82
2022/03/19 09:52:06;;;;;;;;;;;;;;;9.03;86.42;100457.19;10316639;28;19945;-80
2022/03/19 09:57:07;;;;;;;;;;;;;;;9.14;83.57;100436.63;10297048;28;19914;-84
2022/03/19 10:02:21;;;;;;;;;;;;;;;9.14;85.27;100436.63;10296772;28;19945;-81
2022/03/19 10:13:53;;;;;;;;;;;;;;;8.26;97.59;100426.38;10290018;28;19957;-79
2022/03/19 10:19:47;;;;;;;;;;;;;;;8.71;92.77;100410.94;10291508;28;19973;-78
2022/03/19 10:24:54;;;;;;;;;;;;;;;8.89;92.11;100401.69;10317730;28;20388;-79
2022/03/19 10:30:04;;;;;;;;;;;;;;;9.18;85.85;100396.72;10327314;28;20027;-79
2022/03/19 10:35:05;;;;;;;;;;;;;;;9.03;78.73;100376.03;10346267;28;20371;-79
2022/03/19 10:40:07;;;;;;;;;;;;;;;9.43;79.80;100370.03;10344378;28;19939;-78
2022/03/19 10:45:18;;;;;;;;;;;;;;;9.76;82.60;100374.13;10331155;28;19933;-79
2022/03/19 10:50:23;;;;;;;;;;;;;;;9.87;75.14;100364.19;10319739;28;19925;-78
2022/03/19 10:55:24;;;;;;;;;;;;;;;8.81;74.97;100344.06;10267793;28;19932;-78
2022/03/19 11:00:25;;;;;;;;;;;;;;;8.96;72.43;100335.28;10332478;28;20273;-79
2022/03/19 11:05:28;;;;;;;;;;;;;;;9.46;66.63;100331.16;10344389;28;19929;-78
2022/03/19 11:10:28;;;;;;;;;;;;;;;9.48;61.74;100318.31;10332326;28;20348;-78
2022/03/19 11:15:34;;;;;;;;;;;;;;;9.44;56.91;100303.84;10332483;28;20017;-78
2022/03/19 11:20:34;;;;;;;;;;;;;;;9.51;54.14;100294.47;10347048;28;19926;-77
2022/03/19 11:25:39;;;;;;;;;;;;;;;9.36;52.40;100284.53;10335067;28;19930;-78
2022/03/19 11:30:46;;;;;;;;;;;;;;;9.29;55.74;100281.28;10316875;28;19930;-77
2022/03/19 11:35:53;;;;;;;;;;;;;;;9.73;50.67;100269.28;10303828;28;19961;-78
2022/03/19 11:40:57;;;;;;;;;;;;;;;9.97;49.43;100251.56;10296903;28;19997;-81
2022/03/19 11:46:03;;;;;;;;;;;;;;;9.93;45.60;100256.66;10288404;28;20075;-77
2022/03/19 11:51:16;;;;;;;;;;;;;;;9.90;48.50;100243.78;10275259;28;19980;-77
2022/03/19 11:56:19;;;;;;;;;;;;;;;10.29;47.61;100237.84;10270426;28;19930;-78
2022/03/19 12:01:59;;;;;;;;;;;;;;;9.91;47.27;100229.31;10262035;28;19934;-79
2022/03/19 12:07:01;;;;;;;;;;;;;;;10.33;47.67;100222.78;10236389;28;20342;-80
2022/03/19 12:12:23;;;;;;;;;;;;;;;10.00;47.72;100218.03;10271119;28;19927;-79
2022/03/19 12:17:26;;;;;;;;;;;;;;;8.89;50.74;100227.63;10283758;28;20418;-80
2022/03/19 12:22:29;;;;;;;;;;;;;;;8.36;53.08;100245.59;10272290;28;19934;-75
2022/03/19 12:27:30;;;;;;;;;;;;;;;6.69;100.00;100296.44;10291788;28;19926;-80
2022/03/19 12:32:55;;;;;;;;;;;;;;;5.57;100.00;100298.19;10286450;28;20043;-78
2022/03/19 12:37:56;;;;;;;;;;;;;;;4.51;100.00;100321.66;10252390;28;20176;-77
2022/03/19 12:42:59;;;;;;;;;;;;;;;4.38;100.00;100331.72;10278410;28;19941;-78
2022/03/19 12:47:59;;;;;;;;;;;;;;;4.27;100.00;100325.38;10280922;28;20304;-79
2022/03/19 12:53:00;;;;;;;;;;;;;;;4.40;100.00;100314.53;10295357;28;19937;-78
2022/03/19 12:58:01;;;;;;;;;;;;;;;4.77;100.00;100311.59;10286219;28;19925;-77
2022/03/19 13:03:01;;;;;;;;;;;;;;;4.94;100.00;100304.47;10287179;28;20305;-78
2022/03/19 13:08:10;;;;;;;;;;;;;;;4.90;100.00;100289.22;10288230;28;20006;-77
2022/03/19 13:13:12;;;;;;;;;;;;;;;4.83;100.00;100276.03;10255330;28;19962;-78
2022/03/19 13:18:24;;;;;;;;;;;;;;;5.05;100.00;100271.69;10289343;28;20366;-77
2022/03/19 13:23:25;;;;;;;;;;;;;;;5.31;100.00;100266.84;10301098;28;19925;-78
2022/03/19 13:28:25;;;;;;;;;;;;;;;5.48;100.00;100253.53;10304302;28;19927;-79
2022/03/19 13:33:27;;;;;;;;;;;;;;;5.33;100.00;100243.44;10309237;28;19930;-77
2022/03/19 13:38:34;;;;;;;;;;;;;;;5.51;100.00;100226.44;10327019;28;19932;-83
2022/03/19 13:43:36;;;;;;;;;;;;;;;6.04;100.00;100223.31;10317546;28;19926;-80
2022/03/19 13:48:37;;;;;;;;;;;;;;;5.49;100.00;100244.53;10308320;28;19922;-77
2022/03/19 13:53:42;;;;;;;;;;;;;;;5.15;100.00;100231.16;10284674;28;19949;-75
2022/03/19 13:58:59;;;;;;;;;;;;;;;4.97;100.00;100226.84;10292400;28;19927;-77
2022/03/19 14:04:00;;;;;;;;;;;;;;;5.06;100.00;100217.44;10295340;28;19938;-78
2022/03/19 14:09:00;;;;;;;;;;;;;;;5.03;100.00;100206.44;10306201;28;19943;-76
2022/03/19 14:14:02;;;;;;;;;;;;;;;6.04;100.00;100198.50;10297171;28;19930;-76
2022/03/19 14:19:03;;;;;;;;;;;;;;;5.87;100.00;100175.31;10299231;28;20016;-77
2022/03/19 14:24:06;;;;;;;;;;;;;;;6.04;100.00;100174.50;10292352;28;19957;-78
2022/03/19 14:29:09;;;;;;;;;;;;;;;5.81;100.00;100159.50;10267437;28;20012;-78
2022/03/19 14:34:09;;;;;;;;;;;;;;;5.49;100.00;100156.66;10290353;28;19930;-79
2022/03/19 14:39:10;;;;;;;;;;;;;;;5.47;100.00;100156.88;10267999;28;19938;-77
2022/03/19 14:44:11;;;;;;;;;;;;;;;6.03;100.00;100148.88;10296222;28;20005;-76
2022/03/19 14:49:11;;;;;;;;;;;;;;;6.33;100.00;100151.97;10287282;28;19930;-76
2022/03/19 14:54:13;;;;;;;;;;;;;;;6.21;100.00;100145.91;10290470;28;19957;-77
2022/03/19 14:59:14;;;;;;;;;;;;;;;6.21;100.00;100135.25;10273216;28;19978;-79
2022/03/19 15:04:14;;;;;;;;;;;;;;;5.97;100.00;100135.50;10313325;28;19931;-77
2022/03/19 15:09:15;;;;;;;;;;;;;;;5.94;100.00;100133.34;10313423;28;20234;-76
2022/03/19 15:14:15;;;;;;;;;;;;;;;6.05;100.00;100125.47;10274204;28;20489;-76
2022/03/19 15:19:17;;;;;;;;;;;;;;;5.95;100.00;100112.84;10277333;28;19937;-77
2022/03/19 15:24:17;;;;;;;;;;;;;;;5.76;100.00;100108.78;10267646;28;19965;-77
2022/03/19 15:29:17;;;;;;;;;;;;;;;5.68;100.00;100097.53;10299433;28;20021;-75
2022/03/19 15:34:18;;;;;;;;;;;;;;;5.73;100.00;100096.78;10255533;28;20039;-77
2022/03/19 15:39:19;;;;;;;;;;;;;;;5.96;100.00;100099.25;10289993;28;19949;-79
2022/03/19 15:44:19;;;;;;;;;;;;;;;5.81;100.00;100096.34;10248983;28;19941;-80
2022/03/19 15:49:21;;;;;;;;;;;;;;;5.86;100.00;100083.13;10287358;28;19933;-81
2022/03/19 15:54:21;;;;;;;;;;;;;;;5.98;100.00;100083.81;10261714;28;19933;-78
2022/03/19 15:59:22;;;;;;;;;;;;;;;5.93;100.00;100080.28;10283939;28;19934;-78
2022/03/19 16:04:22;;;;;;;;;;;;;;;5.64;100.00;100080.41;10301393;28;19945;-78
2022/03/19 16:09:23;;;;;;;;;;;;;;;5.40;100.00;100066.50;10304676;28;20791;-78
2022/03/19 16:14:23;;;;;;;;;;;;;;;5.41;100.00;100080.63;10266969;28;20330;-80
2022/03/19 16:19:24;;;;;;;;;;;;;;;5.21;100.00;100070.50;10279991;28;20282;-78
2022/03/19 16:24:24;;;;;;;;;;;;;;;5.25;100.00;100055.63;10276367;28;19929;-77
2022/03/19 16:29:25;;;;;;;;;;;;;;;5.21;100.00;100059.84;10315089;28;19957;-78
2022/03/19 16:34:26;;;;;;;;;;;;;;;5.25;100.00;100055.63;10320361;28;19930;-82
2022/03/19 16:39:26;;;;;;;;;;;;;;;5.26;100.00;100054.59;10307084;28;19921;-77
2022/03/19 16:44:27;;;;;;;;;;;;;;;5.38;100.00;100055.28;10268181;28;19981;-78
2022/03/19 16:49:28;;;;;;;;;;;;;;;5.31;100.00;100053.88;10273745;28;19926;-79
2022/03/19 16:54:28;;;;;;;;;;;;;;;5.30;100.00;100052.22;10249598;28;19922;-78
2022/03/19 16:59:29;;;;;;;;;;;;;;;5.22;100.00;100053.47;10288587;28;19936;-78
2022/03/19 17:04:29;;;;;;;;;;;;;;;5.16;100.00;100054.44;10291383;28;19926;-78
2022/03/19 17:09:30;;;;;;;;;;;;;;;5.04;100.00;100053.72;10275792;28;19930;-77
2022/03/19 17:14:30;;;;;;;;;;;;;;;4.99;100.00;100057.09;10293473;28;19927;-78
2022/03/19 17:19:31;;;;;;;;;;;;;;;4.84;100.00;100055.00;10237419;28;19934;-80
2022/03/19 17:24:32;;;;;;;;;;;;;;;4.73;100.00;100055.88;10294900;28;20020;-79
2022/03/19 17:29:35;;;;;;;;;;;;;;;4.62;100.00;100056.75;10272043;28;20445;-76
2022/03/19 17:34:35;;;;;;;;;;;;;;;4.55;100.00;100056.91;10287241;28;20030;-76
2022/03/19 17:39:35;;;;;;;;;;;;;;;4.56;100.00;100055.84;10256910;28;20207;-79
2022/03/19 17:44:36;;;;;;;;;;;;;;;4.42;100.00;100051.09;10239799;28;19926;-77
2022/03/19 17:49:36;;;;;;;;;;;;;;;4.34;100.00;100056.78;10298134;28;19977;-80
2022/03/19 17:54:37;;;;;;;;;;;;;;;4.39;100.00;100046.22;10297804;28;19926;-78
2022/03/19 17:59:38;;;;;;;;;;;;;;;4.31;100.00;100047.44;10302155;28;20411;-79
2022/03/19 18:04:39;;;;;;;;;;;;;;;4.26;100.00;100047.34;10295283;28;19961;-77
2022/03/19 18:09:39;;;;;;;;;;;;;;;4.10;100.00;100045.44;10301502;28;19961;-79
2022/03/19 18:14:40;;;;;;;;;;;;;;;4.26;100.00;100052.66;10291274;28;19932;-77
2022/03/19 18:19:40;;;;;;;;;;;;;;;4.37;100.00;100029.72;10300099;28;20033;-77
2022/03/19 18:24:40;;;;;;;;;;;;;;;4.47;100.00;100029.91;10271171;28;19930;-77
2022/03/19 18:29:41;;;;;;;;;;;;;;;4.51;100.00;100029.19;10309510;28;19926;-79
2022/03/19 18:34:41;;;;;;;;;;;;;;;4.59;94.64;100014.69;10304001;28;19933;-80
2022/03/19 18:39:42;;;;;;;;;;;;;;;4.64;94.53;100019.28;10316502;28;19925;-80
2022/03/19 18:44:43;;;;;;;;;;;;;;;4.74;91.68;100017.59;10296429;28;19931;-81
2022/03/19 18:49:51;;;;;;;;;;;;;;;4.75;91.63;100013.88;10276840;28;20352;-78
2022/03/19 18:54:54;;;;;;;;;;;;;;;4.77;77.86;100011.00;10276963;28;20053;-78
2022/03/19 18:59:55;;;;;;;;;;;;;;;4.83;73.91;100016.13;10286805;28;20017;-80
2022/03/19 19:04:56;;;;;;;;;;;;;;;4.89;69.83;100008.25;10270519;28;19934;-80
2022/03/19 19:09:56;;;;;;;;;;;;;;;5.00;64.77;100002.03;10257534;28;19930;-78
2022/03/19 19:14:57;;;;;;;;;;;;;;;5.11;60.21;99987.81;10292158;28;19930;-77
2022/03/19 19:19:58;;;;;;;;;;;;;;;5.24;60.89;99987.47;10301497;28;19949;-78
2022/03/19 19:25:00;;;;;;;;;;;;;;;5.20;55.48;99989.00;10244880;28;19932;-78
2022/03/19 19:30:03;;;;;;;;;;;;;;;5.21;54.22;99982.66;10278104;28;20346;-77
2022/03/19 19:35:05;;;;;;;;;;;;;;;5.25;53.15;99969.66;10280894;28;19989;-78
2022/03/19 19:40:08;;;;;;;;;;;;;;;5.21;54.45;99971.19;10293671;28;19937;-80
2022/03/19 19:45:09;;;;;;;;;;;;;;;5.26;53.11;99957.94;10286453;28;19974;-79
2022/03/19 19:50:09;;;;;;;;;;;;;;;5.24;52.34;99944.09;10280254;28;19958;-79
2022/03/19 19:55:13;;;;;;;;;;;;;;;5.26;50.83;99939.31;10311875;28;19927;-79
2022/03/19 20:00:20;;;;;;;;;;;;;;;5.20;51.63;99935.78;10297537;28;19930;-79
2022/03/19 20:05:21;;;;;;;;;;;;;;;5.16;51.79;99929.34;10299765;28;19930;-79
2022/03/19 20:10:21;;;;;;;;;;;;;;;5.08;53.66;99921.78;10285609;28;19930;-80
2022/03/19 20:15:24;;;;;;;;;;;;;;;4.93;54.40;99911.72;10259758;28;20288;-79
2022/03/19 20:20:24;;;;;;;;;;;;;;;4.81;53.21;99906.53;10267225;28;19958;-82
2022/03/19 20:25:25;;;;;;;;;;;;;;;4.77;53.32;99916.06;10307403;28;19984;-81
2022/03/19 20:30:26;;;;;;;;;;;;;;;4.74;53.22;99908.53;10351450;28;19962;-78
2022/03/19 20:35:27;;;;;;;;;;;;;;;4.77;53.31;99908.06;10326865;28;20326;-78
2022/03/19 20:40:28;;;;;;;;;;;;;;;4.80;53.35;99896.94;10343076;28;19936;-78
2022/03/19 20:45:30;;;;;;;;;;;;;;;4.81;52.53;99898.53;10308245;28;19926;-81
2022/03/19 20:50:30;;;;;;;;;;;;;;;4.79;52.44;99895.31;10343224;28;19930;-78
2022/03/19 20:55:31;;;;;;;;;;;;;;;4.81;52.90;99901.19;10348719;28;19937;-79
2022/03/19 21:00:34;;;;;;;;;;;;;;;4.75;53.66;99890.72;10347357;28;19930;-77
2022/03/19 21:05:36;;;;;;;;;;;;;;;4.71;54.95;99885.09;10318396;28;19953;-78
2022/03/19 21:10:37;;;;;;;;;;;;;;;4.73;53.79;99888.31;10330079;28;19930;-78
2022/03/19 21:15:39;;;;;;;;;;;;;;;4.63;51.50;99874.06;10311993;28;20358;-79
2022/03/19 21:20:41;;;;;;;;;;;;;;;4.51;53.90;99874.19;10329500;28;20036;-80
2022/03/19 21:25:41;;;;;;;;;;;;;;;4.50;53.55;99862.75;10318162;28;20016;-79
2022/03/19 21:30:42;;;;;;;;;;;;;;;4.50;52.07;99861.94;10313635;28;19933;-80
2022/03/19 21:35:43;;;;;;;;;;;;;;;4.32;53.24;99867.50;10333157;28;19930;-79
2022/03/19 21:40:49;;;;;;;;;;;;;;;4.32;54.51;99855.03;10306494;28;20009;-78
2022/03/19 21:45:55;;;;;;;;;;;;;;;4.31;55.55;99850.75;10296949;28;19926;-79
2022/03/19 21:50:56;;;;;;;;;;;;;;;4.22;54.54;99844.25;10315406;28;19934;-79
2022/03/19 21:55:57;;;;;;;;;;;;;;;4.14;55.85;99839.34;10341430;28;19933;-78
2022/03/19 22:00:57;;;;;;;;;;;;;;;4.19;54.31;99826.09;10331532;28;19972;-81
2022/03/19 22:05:58;;;;;;;;;;;;;;;4.09;55.13;99831.28;10366524;28;19981;-82
2022/03/19 22:10:59;;;;;;;;;;;;;;;4.17;55.83;99820.25;10356553;28;19920;-79
2022/03/19 22:15:59;;;;;;;;;;;;;;;4.22;55.60;99830.97;10378856;28;19921;-83
2022/03/19 22:21:02;;;;;;;;;;;;;;;4.18;58.37;99832.47;10357512;28;20014;-79
2022/03/19 22:26:04;;;;;;;;;;;;;;;4.16;57.70;99831.91;10334831;28;19914;-79
2022/03/19 22:31:06;;;;;;;;;;;;;;;4.18;57.96;99835.13;10347690;28;19929;-80
2022/03/19 22:36:07;;;;;;;;;;;;;;;4.26;56.00;99824.09;10328614;28;20017;-84
2022/03/19 22:41:09;;;;;;;;;;;;;;;4.19;57.90;99823.44;10332462;28;19925;-78
2022/03/19 22:46:10;;;;;;;;;;;;;;;4.18;60.58;99820.00;10319743;28;19930;-80
2022/03/19 22:51:10;;;;;;;;;;;;;;;4.12;62.85;99817.53;10320740;28;19936;-81
2022/03/19 22:56:12;;;;;;;;;;;;;;;4.15;59.78;99814.38;10311441;28;19940;-81
2022/03/19 23:01:15;;;;;;;;;;;;;;;4.24;60.29;99810.25;10353886;28;20299;-83
2022/03/19 23:06:17;;;;;;;;;;;;;;;4.15;60.41;99796.56;10322461;28;20181;-79
2022/03/19 23:11:28;;;;;;;;;;;;;;;4.08;61.18;99797.78;10326479;28;20033;-78
2022/03/19 23:16:29;;;;;;;;;;;;;;;3.88;63.59;99793.78;10356511;28;19925;-77
2022/03/19 23:21:35;;;;;;;;;;;;;;;3.70;63.83;99781.53;10345100;28;19929;-82
2022/03/19 23:26:38;;;;;;;;;;;;;;;3.67;66.89;99779.38;10316543;28;19933;-76
2022/03/19 23:31:39;;;;;;;;;;;;;;;3.66;72.42;99776.97;10298762;28;19958;-77
2022/03/19 23:36:40;;;;;;;;;;;;;;;3.52;74.96;99768.47;10269150;28;19930;-77
2022/03/19 23:41:40;;;;;;;;;;;;;;;3.51;74.19;99758.91;10287742;28;19930;-78
2022/03/19 23:46:41;;;;;;;;;;;;;;;3.54;75.96;99761.06;10291448;28;19940;-79
2022/03/19 23:51:51;;;;;;;;;;;;;;;3.47;74.67;99749.00;10277397;28;21993;-80
2022/03/19 23:56:51;;;;;;;;;;;;;;;3.33;82.31;99741.34;10297955;28;19933;-78
